createdAt,value
2022-08-20T00:01:42.343Z,61.67
2022-08-20T00:04:11.236Z,61.76
2022-08-20T00:06:40.558Z,61.57
2022-08-20T00:09:10.384Z,61.88
2022-08-20T00:11:40.603Z,61.41
2022-08-20T00:14:08.638Z,61.54
2022-08-20T00:16:39.173Z,61.46
2022-08-20T00:19:09.638Z,61.69
2022-08-20T00:21:38.057Z,61.37
2022-08-20T00:24:07.100Z,61.66
2022-08-20T00:26:35.266Z,61.68
2022-08-20T00:29:09.501Z,61.88
2022-08-20T00:31:38.976Z,61.54
2022-08-20T00:34:07.327Z,61.31
2022-08-20T00:36:35.302Z,61.32
2022-08-20T00:39:03.201Z,61.49
2022-08-20T00:41:31.377Z,61.35
2022-08-20T00:44:09.294Z,61.45
2022-08-20T00:46:39.544Z,61.30
2022-08-20T00:49:09.737Z,61.38
2022-08-20T00:51:41.373Z,61.56
2022-08-20T00:54:15.288Z,61.63
2022-08-20T00:56:44.940Z,61.27
2022-08-20T00:59:19.224Z,60.96
2022-08-20T01:01:56.276Z,61.25
2022-08-20T01:04:26.316Z,61.03
2022-08-20T01:06:54.908Z,61.35
2022-08-20T01:09:33.537Z,61.38
2022-08-20T01:12:12.383Z,61.50
2022-08-20T01:14:45.569Z,61.23
2022-08-20T01:17:18.602Z,61.39
2022-08-20T01:19:52.585Z,62.09
2022-08-20T01:22:43.914Z,62.02
2022-08-20T01:25:18.217Z,61.91
2022-08-20T01:27:53.222Z,61.61
2022-08-20T01:30:25.989Z,61.63
2022-08-20T01:32:54.097Z,61.25
2022-08-20T01:35:24.217Z,61.54
2022-08-20T01:37:52.277Z,61.89
2022-08-20T01:40:34.581Z,62.01
2022-08-20T01:43:09.100Z,61.80
2022-08-20T01:45:40.172Z,61.68
2022-08-20T01:48:09.635Z,60.75
2022-08-20T01:50:43.215Z,61.18
2022-08-20T01:53:19.282Z,61.45
2022-08-20T01:55:47.282Z,60.96
2022-08-20T01:58:17.021Z,60.35
2022-08-20T02:00:45.120Z,59.99
2022-08-20T02:03:13.036Z,60.16
2022-08-20T02:05:41.059Z,60.58
2022-08-20T02:08:09.073Z,60.28
2022-08-20T02:10:37.425Z,60.50
2022-08-20T02:13:08.622Z,60.02
2022-08-20T02:15:39.913Z,60.17
2022-08-20T02:18:15.444Z,59.73
2022-08-20T02:20:44.489Z,59.67
2022-08-20T02:23:13.144Z,59.63
2022-08-20T02:25:43.610Z,59.37
2022-08-20T02:28:14.440Z,59.65
2022-08-20T02:30:46.951Z,59.45
2022-08-20T02:33:17.243Z,59.44
2022-08-20T02:35:47.900Z,59.19
2022-08-20T02:38:16.624Z,59.45
2022-08-20T02:40:46.313Z,58.94
2022-08-20T02:43:14.491Z,58.75
2022-08-20T02:45:44.690Z,58.60
2022-08-20T02:48:20.888Z,58.53
2022-08-20T02:50:51.919Z,58.41
2022-08-20T02:53:19.855Z,58.19
2022-08-20T02:55:47.778Z,58.21
2022-08-20T02:58:16.557Z,57.82
2022-08-20T03:00:46.822Z,57.74
2022-08-20T03:03:20.279Z,57.20
2022-08-20T03:05:48.117Z,56.88
2022-08-20T03:08:17.764Z,57.03
2022-08-20T03:10:47.732Z,56.88
2022-08-20T03:13:17.034Z,56.86
2022-08-20T03:15:48.418Z,56.89
2022-08-20T03:18:18.344Z,56.79
2022-08-20T03:20:46.806Z,55.93
2022-08-20T03:23:22.226Z,56.41
2022-08-20T03:25:50.861Z,55.94
2022-08-20T03:28:19.878Z,55.81
2022-08-20T03:30:50.426Z,55.78
2022-08-20T03:33:20.195Z,55.68
2022-08-20T03:35:48.788Z,55.89
2022-08-20T03:38:32.216Z,55.66
2022-08-20T03:41:00.819Z,55.21
2022-08-20T03:43:29.407Z,55.12
2022-08-20T03:45:58.850Z,54.66
2022-08-20T03:48:26.902Z,54.15
2022-08-20T03:50:55.979Z,54.39
2022-08-20T03:53:24.281Z,54.90
2022-08-20T03:55:58.235Z,54.68
2022-08-20T03:58:34.836Z,55.32
2022-08-20T04:01:07.237Z,54.60
2022-08-20T04:03:36.351Z,55.58
2022-08-20T04:06:05.060Z,55.12
2022-08-20T04:08:33.136Z,54.82
2022-08-20T04:11:01.191Z,54.91
2022-08-20T04:13:30.745Z,54.73
2022-08-20T04:16:02.830Z,54.71
2022-08-20T04:18:34.304Z,53.91
2022-08-20T04:21:02.325Z,54.00
2022-08-20T04:23:32.376Z,53.31
2022-08-20T04:26:00.907Z,53.39
2022-08-20T04:28:30.799Z,53.27
2022-08-20T04:31:02.542Z,53.70
2022-08-20T04:33:34.186Z,54.26
2022-08-20T04:36:06.155Z,54.26
2022-08-20T04:38:49.542Z,53.85
2022-08-20T04:41:23.266Z,53.46
2022-08-20T04:43:54.360Z,53.30
2022-08-20T04:46:26.637Z,53.98
2022-08-20T04:48:58.878Z,53.55
2022-08-20T04:51:28.997Z,53.58
2022-08-20T04:54:03.065Z,53.97
2022-08-20T04:56:39.496Z,53.99
2022-08-20T04:59:10.014Z,61.18
2022-08-20T05:01:38.818Z,61.25
2022-08-20T05:04:11.524Z,60.62
2022-08-20T05:06:42.591Z,59.37
2022-08-20T05:09:14.296Z,58.04
2022-08-20T05:11:48.778Z,56.24
2022-08-20T05:14:18.095Z,55.65
2022-08-20T05:16:51.509Z,54.56
2022-08-20T05:19:30.205Z,53.72
2022-08-20T05:22:01.257Z,52.43
2022-08-20T05:24:33.025Z,52.17
2022-08-20T05:27:03.925Z,50.17
2022-08-20T05:29:36.069Z,51.62
2022-08-20T05:32:07.275Z,52.38
2022-08-20T05:34:39.929Z,50.94
2022-08-20T05:37:12.793Z,51.56
2022-08-20T05:39:42.871Z,51.31
2022-08-20T05:42:11.442Z,51.34
2022-08-20T05:44:40.797Z,51.34
2022-08-20T05:47:11.299Z,51.06
2022-08-20T05:49:42.956Z,49.98
2022-08-20T05:52:13.766Z,50.53
2022-08-20T05:54:43.318Z,49.88
2022-08-20T05:57:14.667Z,49.56
2022-08-20T05:59:44.406Z,50.58
2022-08-20T06:02:27.320Z,49.25
2022-08-20T06:04:59.660Z,50.51
2022-08-20T06:07:30.504Z,50.63
2022-08-20T06:10:02.504Z,50.38
2022-08-20T06:12:33.111Z,50.37
2022-08-20T06:15:01.736Z,50.46
2022-08-20T06:17:39.298Z,50.38
2022-08-20T06:20:10.853Z,50.17
2022-08-20T06:22:39.234Z,48.20
2022-08-20T06:25:08.601Z,49.47
2022-08-20T06:27:40.362Z,48.42
2022-08-20T06:30:10.450Z,49.40
2022-08-20T06:32:38.550Z,49.46
2022-08-20T06:35:10.941Z,49.64
2022-08-20T06:37:40.466Z,48.04
2022-08-20T06:40:12.098Z,48.18
2022-08-20T06:42:47.805Z,47.74
2022-08-20T06:45:18.920Z,47.76
2022-08-20T06:47:48.088Z,48.43
2022-08-20T06:50:20.191Z,47.75
2022-08-20T06:52:52.401Z,47.48
2022-08-20T06:55:32.865Z,48.21
2022-08-20T06:58:02.537Z,48.21
2022-08-20T07:00:31.729Z,48.46
2022-08-20T07:03:01.135Z,47.08
2022-08-20T07:05:34.070Z,47.76
2022-08-20T07:08:02.056Z,47.74
2022-08-20T07:10:30.837Z,48.13
2022-08-20T07:13:01.550Z,47.89
2022-08-20T07:15:31.414Z,47.52
2022-08-20T07:18:06.473Z,47.00
2022-08-20T07:20:41.329Z,47.10
2022-08-20T07:23:11.981Z,46.82
2022-08-20T07:25:41.542Z,47.00
2022-08-20T07:28:15.291Z,46.86
2022-08-20T07:31:12.050Z,46.97
2022-08-20T07:33:41.627Z,45.62
2022-08-20T07:36:11.785Z,45.87
2022-08-20T07:38:39.997Z,45.44
2022-08-20T07:41:14.828Z,45.78
2022-08-20T07:43:45.478Z,45.75
2022-08-20T07:46:15.522Z,45.96
2022-08-20T07:48:46.791Z,46.05
2022-08-20T07:51:18.655Z,46.86
2022-08-20T07:53:48.535Z,46.13
2022-08-20T07:56:21.456Z,46.47
2022-08-20T07:58:52.576Z,46.94
2022-08-20T08:01:23.023Z,46.55
2022-08-20T08:03:51.548Z,46.29
2022-08-20T08:06:29.047Z,46.18
2022-08-20T08:09:03.041Z,44.88
2022-08-20T08:11:38.038Z,45.07
2022-08-20T08:14:09.549Z,45.75
2022-08-20T08:16:39.370Z,45.29
2022-08-20T08:19:12.074Z,45.88
2022-08-20T08:21:42.538Z,45.49
2022-08-20T08:24:12.683Z,44.92
2022-08-20T08:26:43.977Z,44.68
2022-08-20T08:29:13.593Z,45.29
2022-08-20T08:31:42.469Z,45.04
2022-08-20T08:34:12.529Z,45.08
2022-08-20T08:36:44.411Z,45.18
2022-08-20T08:39:14.590Z,44.77
2022-08-20T08:41:50.044Z,44.79
2022-08-20T08:44:23.485Z,44.85
2022-08-20T08:46:54.220Z,43.78
2022-08-20T08:49:33.896Z,42.77
2022-08-20T08:52:15.219Z,41.71
2022-08-20T08:54:50.294Z,42.75
2022-08-20T08:57:21.378Z,42.85
2022-08-20T09:00:03.856Z,43.70
2022-08-20T09:02:35.465Z,42.95
2022-08-20T09:05:15.217Z,44.49
2022-08-20T09:07:51.723Z,41.68
2022-08-20T09:10:23.670Z,42.19
2022-08-20T09:12:55.979Z,42.76
2022-08-20T09:15:26.431Z,42.43
2022-08-20T09:17:58.525Z,43.09
2022-08-20T09:20:30.193Z,42.93
2022-08-20T09:23:01.189Z,42.91
2022-08-20T09:25:31.087Z,42.10
2022-08-20T09:28:00.339Z,41.23
2022-08-20T09:30:31.162Z,41.46
2022-08-20T09:33:00.732Z,41.56
2022-08-20T09:35:29.716Z,41.92
2022-08-20T09:37:59.549Z,41.63
2022-08-20T09:40:29.744Z,41.73
2022-08-20T09:42:59.230Z,42.02
2022-08-20T09:45:28.048Z,42.11
2022-08-20T09:47:58.160Z,43.11
2022-08-20T09:50:30.756Z,42.79
2022-08-20T09:53:03.315Z,42.86
2022-08-20T09:55:36.226Z,42.45
2022-08-20T09:58:11.537Z,43.45
2022-08-20T10:00:42.998Z,42.79
2022-08-20T10:03:12.187Z,43.30
2022-08-20T10:05:41.602Z,42.89
2022-08-20T10:08:13.259Z,43.12
2022-08-20T10:10:44.111Z,42.74
2022-08-20T10:13:15.483Z,42.59
2022-08-20T10:15:45.462Z,42.13
2022-08-20T10:18:15.131Z,41.77
2022-08-20T10:20:43.943Z,41.50
2022-08-20T10:23:14.101Z,41.28
2022-08-20T10:25:44.792Z,40.43
2022-08-20T10:28:16.270Z,40.43
2022-08-20T10:30:48.448Z,40.28
2022-08-20T10:33:20.558Z,38.21
2022-08-20T10:35:49.236Z,38.21
2022-08-20T10:38:22.067Z,38.40
2022-08-20T10:40:53.058Z,38.93
2022-08-20T10:43:22.972Z,39.19
2022-08-20T10:45:53.129Z,40.57
2022-08-20T10:48:23.318Z,41.33
2022-08-20T10:50:54.603Z,41.24
2022-08-20T10:53:23.375Z,41.32
2022-08-20T10:55:54.379Z,41.05
2022-08-20T10:58:24.143Z,40.53
2022-08-20T11:00:56.468Z,41.65
2022-08-20T11:03:27.689Z,41.07
2022-08-20T11:05:56.134Z,40.47
2022-08-20T11:08:33.637Z,39.91
2022-08-20T11:11:05.509Z,40.03
2022-08-20T11:13:35.298Z,39.62
2022-08-20T11:16:05.181Z,39.74
2022-08-20T11:18:33.661Z,40.17
2022-08-20T11:21:02.142Z,40.19
2022-08-20T11:23:30.530Z,40.15
2022-08-20T11:25:59.429Z,39.30
2022-08-20T11:28:32.264Z,38.38
2022-08-20T11:31:02.688Z,38.65
2022-08-20T11:33:32.006Z,38.35
2022-08-20T11:36:00.980Z,39.14
2022-08-20T11:38:30.912Z,39.08
2022-08-20T11:41:00.342Z,39.41
2022-08-20T11:43:31.922Z,40.41
2022-08-20T11:46:00.419Z,40.59
2022-08-20T11:48:30.187Z,39.29
2022-08-20T11:50:59.231Z,37.95
2022-08-20T11:53:27.385Z,37.99
2022-08-20T11:55:57.559Z,39.14
2022-08-20T11:58:27.633Z,37.60
2022-08-20T12:00:57.481Z,37.00
2022-08-20T12:03:25.730Z,36.96
2022-08-20T12:05:57.096Z,36.77
2022-08-20T12:08:27.947Z,36.56
2022-08-20T12:11:00.369Z,37.11
2022-08-20T12:13:48.588Z,36.88
2022-08-20T12:16:20.313Z,36.82
2022-08-20T12:18:49.373Z,37.51
2022-08-20T12:21:17.963Z,37.41
2022-08-20T12:23:46.629Z,36.61
2022-08-20T12:26:16.669Z,36.07
2022-08-20T12:28:45.027Z,35.43
2022-08-20T12:31:13.278Z,35.76
2022-08-20T12:33:43.145Z,35.55
2022-08-20T12:36:11.437Z,35.30
2022-08-20T12:38:39.691Z,34.04
2022-08-20T12:41:08.307Z,34.30
2022-08-20T12:43:39.994Z,33.87
2022-08-20T12:46:10.338Z,33.90
2022-08-20T12:48:40.963Z,34.71
2022-08-20T12:51:12.217Z,34.27
2022-08-20T12:53:41.306Z,33.68
2022-08-20T12:56:10.019Z,34.64
2022-08-20T12:58:40.720Z,34.94
2022-08-20T13:01:10.399Z,33.96
2022-08-20T13:03:45.118Z,34.30
2022-08-20T13:06:14.659Z,34.83
2022-08-20T13:08:42.992Z,34.65
2022-08-20T13:11:11.024Z,35.32
2022-08-20T13:13:39.495Z,34.70
2022-08-20T13:16:10.179Z,34.72
2022-08-20T13:18:40.447Z,34.92
2022-08-20T13:21:08.780Z,36.18
2022-08-20T13:23:38.960Z,34.84
2022-08-20T13:26:08.505Z,34.30
2022-08-20T13:28:37.535Z,35.23
2022-08-20T13:31:06.229Z,34.40
2022-08-20T13:33:35.647Z,33.68
2022-08-20T13:36:04.219Z,34.46
2022-08-20T13:38:33.445Z,33.89
2022-08-20T13:41:04.077Z,34.41
2022-08-20T13:43:34.357Z,34.30
2022-08-20T13:46:03.292Z,33.98
2022-08-20T13:48:31.401Z,35.20
2022-08-20T13:50:59.906Z,33.80
2022-08-20T13:53:27.932Z,33.97
2022-08-20T13:55:56.274Z,33.51
2022-08-20T13:58:26.202Z,33.77
2022-08-20T14:00:54.798Z,33.50
2022-08-20T14:03:25.313Z,34.05
2022-08-20T14:05:54.756Z,34.03
2022-08-20T14:08:26.324Z,34.05
2022-08-20T14:10:55.638Z,33.89
2022-08-20T14:13:28.248Z,33.59
2022-08-20T14:15:57.101Z,32.58
2022-08-20T14:18:25.673Z,32.36
2022-08-20T14:20:54.910Z,32.49
2022-08-20T14:23:25.127Z,32.60
2022-08-20T14:25:54.185Z,31.99
2022-08-20T14:28:28.087Z,32.73
2022-08-20T14:30:57.006Z,32.88
2022-08-20T14:33:25.879Z,32.16
2022-08-20T14:35:54.644Z,32.92
2022-08-20T14:38:25.325Z,33.18
2022-08-20T14:40:53.889Z,32.92
2022-08-20T14:43:23.799Z,32.39
2022-08-20T14:45:53.825Z,33.47
2022-08-20T14:48:26.101Z,34.26
2022-08-20T14:50:56.170Z,31.79
2022-08-20T14:53:25.521Z,31.25
2022-08-20T14:55:53.643Z,32.06
2022-08-20T14:58:23.744Z,31.42
2022-08-20T15:00:56.671Z,31.44
2022-08-20T15:03:30.971Z,31.95
2022-08-20T15:06:00.891Z,32.46
2022-08-20T15:08:30.528Z,32.78
2022-08-20T15:10:59.437Z,33.49
2022-08-20T15:13:27.771Z,33.88
2022-08-20T15:15:57.263Z,33.44
2022-08-20T15:18:25.354Z,33.19
2022-08-20T15:20:54.042Z,33.69
2022-08-20T15:23:22.646Z,33.64
2022-08-20T15:25:50.793Z,33.86
2022-08-20T15:28:19.024Z,34.36
2022-08-20T15:30:47.136Z,33.51
2022-08-20T15:33:16.642Z,33.44
2022-08-20T15:35:45.062Z,33.89
2022-08-20T15:38:13.517Z,33.71
2022-08-20T15:40:41.871Z,33.64
2022-08-20T15:43:09.956Z,33.16
2022-08-20T15:45:38.195Z,33.54
2022-08-20T15:48:13.171Z,33.46
2022-08-20T15:51:12.352Z,33.83
2022-08-20T15:53:53.514Z,33.30
2022-08-20T15:56:42.085Z,32.95
2022-08-20T15:59:21.939Z,33.26
2022-08-20T16:02:00.412Z,33.61
2022-08-20T16:05:07.330Z,33.26
2022-08-20T16:07:47.123Z,33.90
2022-08-20T16:10:21.148Z,34.18
2022-08-20T16:12:52.785Z,34.36
2022-08-20T16:15:26.429Z,34.34
2022-08-20T16:18:07.039Z,33.61
2022-08-20T16:20:43.882Z,33.59
2022-08-20T16:23:22.658Z,33.44
2022-08-20T16:26:03.341Z,33.18
2022-08-20T16:28:42.675Z,33.97
2022-08-20T16:31:16.186Z,32.41
2022-08-20T16:33:53.332Z,33.12
2022-08-20T16:36:29.686Z,33.95
2022-08-20T16:39:04.871Z,34.56
2022-08-20T16:41:40.609Z,35.81
2022-08-20T16:44:17.739Z,36.08
2022-08-20T16:46:54.987Z,36.33
2022-08-20T16:49:32.445Z,36.55
2022-08-20T16:52:01.610Z,36.54
2022-08-20T16:54:31.409Z,36.78
2022-08-20T16:57:04.136Z,36.94
2022-08-20T16:59:36.600Z,36.83
2022-08-20T17:02:12.474Z,36.69
2022-08-20T17:04:57.844Z,37.04
2022-08-20T17:07:43.470Z,36.98
2022-08-20T17:10:21.679Z,37.07
2022-08-20T17:13:01.149Z,37.00
2022-08-20T17:15:34.602Z,37.39
2022-08-20T17:18:20.770Z,37.32
2022-08-20T17:20:49.173Z,37.68
2022-08-20T17:23:20.158Z,38.10
2022-08-20T17:25:58.794Z,38.13
2022-08-20T17:28:35.254Z,38.57
2022-08-20T17:31:03.552Z,38.68
2022-08-20T17:33:35.218Z,40.16
2022-08-20T17:36:08.072Z,41.13
2022-08-20T17:38:41.008Z,41.70
2022-08-20T17:41:17.383Z,42.17
2022-08-20T17:43:46.213Z,42.43
2022-08-20T17:46:17.370Z,42.64
2022-08-20T17:48:48.419Z,42.70
2022-08-20T17:51:19.298Z,42.65
2022-08-20T17:53:52.131Z,42.62
2022-08-20T17:56:25.223Z,42.17
2022-08-20T17:59:03.094Z,42.66
2022-08-20T18:01:31.761Z,42.40
2022-08-20T18:04:00.040Z,42.40
2022-08-20T18:06:33.739Z,42.40
2022-08-20T18:09:05.638Z,42.43
2022-08-20T18:11:41.525Z,42.54
2022-08-20T18:14:25.585Z,42.57
2022-08-20T18:17:09.821Z,42.29
2022-08-20T18:20:07.110Z,42.36
2022-08-20T18:22:44.555Z,42.66
2022-08-20T18:25:24.463Z,42.42
2022-08-20T18:27:58.969Z,42.53
2022-08-20T18:30:28.013Z,42.33
2022-08-20T18:33:04.676Z,41.98
2022-08-20T18:35:37.363Z,42.09
2022-08-20T18:38:28.892Z,41.78
2022-08-20T18:41:08.362Z,41.70
2022-08-20T18:43:38.156Z,41.92
2022-08-20T18:46:15.895Z,42.35
2022-08-20T18:48:55.823Z,42.02
2022-08-20T18:51:36.388Z,41.88
2022-08-20T18:54:05.998Z,42.21
2022-08-20T18:56:43.223Z,42.17
2022-08-20T18:59:16.519Z,42.22
2022-08-20T19:01:44.648Z,41.78
2022-08-20T19:04:27.196Z,42.12
2022-08-20T19:06:59.948Z,42.08
2022-08-20T19:09:44.110Z,42.58
2022-08-20T19:12:38.765Z,42.39
2022-08-20T19:15:13.137Z,42.21
2022-08-20T19:17:59.346Z,42.37
2022-08-20T19:20:31.314Z,42.80
2022-08-20T19:23:05.996Z,42.75
2022-08-20T19:25:38.481Z,42.54
2022-08-20T19:28:18.539Z,42.90
2022-08-20T19:30:48.489Z,42.68
2022-08-20T19:33:26.459Z,42.65
2022-08-20T19:36:28.214Z,43.04
2022-08-20T19:38:59.084Z,42.44
2022-08-20T19:41:33.645Z,42.65
2022-08-20T19:44:03.917Z,42.64
2022-08-20T19:46:39.565Z,43.15
2022-08-20T19:49:21.163Z,43.02
2022-08-20T19:52:02.732Z,43.06
2022-08-20T19:54:31.382Z,42.61
2022-08-20T19:57:07.467Z,42.35
2022-08-20T19:59:36.608Z,42.47
2022-08-20T20:02:20.642Z,42.25
2022-08-20T20:04:54.877Z,42.36
2022-08-20T20:07:28.638Z,42.85
2022-08-20T20:09:59.433Z,43.06
2022-08-20T20:12:29.800Z,42.88
2022-08-20T20:15:00.319Z,42.18
2022-08-20T20:17:35.416Z,42.77
2022-08-20T20:20:23.192Z,42.80
2022-08-20T20:22:56.767Z,42.83
2022-08-20T20:25:42.713Z,43.03
2022-08-20T20:28:18.971Z,42.78
2022-08-20T20:30:48.449Z,43.10
2022-08-20T20:33:21.996Z,43.08
2022-08-20T20:36:04.273Z,43.03
2022-08-20T20:38:34.260Z,43.19
2022-08-20T20:41:05.486Z,43.38
2022-08-20T20:43:38.459Z,43.27
2022-08-20T20:46:15.885Z,43.65
2022-08-20T20:48:50.429Z,43.39
2022-08-20T20:51:31.036Z,43.73
2022-08-20T20:54:03.176Z,43.29
2022-08-20T20:56:36.607Z,43.38
2022-08-20T20:59:09.504Z,43.81
2022-08-20T21:01:49.278Z,43.95
2022-08-20T21:04:26.130Z,43.85
2022-08-20T21:07:00.679Z,43.97
2022-08-20T21:09:30.483Z,43.56
2022-08-20T21:12:00.047Z,43.73
2022-08-20T21:14:29.155Z,43.79
2022-08-20T21:17:00.762Z,43.94
2022-08-20T21:19:31.477Z,43.90
2022-08-20T21:22:00.228Z,44.14
2022-08-20T21:24:30.587Z,44.24
2022-08-20T21:27:01.735Z,44.76
2022-08-20T21:29:33.013Z,45.13
2022-08-20T21:32:01.601Z,44.92
2022-08-20T21:34:32.907Z,44.49
2022-08-20T21:37:02.996Z,44.61
2022-08-20T21:39:31.771Z,44.62
2022-08-20T21:42:03.131Z,44.48
2022-08-20T21:44:35.674Z,44.58
2022-08-20T21:47:05.349Z,44.83
2022-08-20T21:49:36.563Z,44.58
2022-08-20T21:52:05.595Z,44.88
2022-08-20T21:54:33.807Z,45.13
2022-08-20T21:57:05.273Z,44.66
2022-08-20T21:59:38.069Z,44.66
2022-08-20T22:02:08.414Z,44.59
2022-08-20T22:04:40.369Z,44.45
2022-08-20T22:07:12.294Z,45.17
2022-08-20T22:09:41.610Z,44.91
2022-08-20T22:12:20.793Z,44.77
2022-08-20T22:14:51.279Z,44.91
2022-08-20T22:17:21.010Z,44.97
2022-08-20T22:19:51.878Z,44.70
2022-08-20T22:22:23.670Z,44.97
2022-08-20T22:24:53.079Z,44.97
2022-08-20T22:27:22.642Z,45.04
2022-08-20T22:29:54.203Z,45.19
2022-08-20T22:32:33.295Z,45.10
2022-08-20T22:35:16.031Z,45.16
2022-08-20T22:37:44.209Z,44.86
2022-08-20T22:40:17.047Z,44.65
2022-08-20T22:42:47.809Z,44.35
2022-08-20T22:45:18.928Z,44.65
2022-08-20T22:47:49.797Z,44.88
2022-08-20T22:50:22.265Z,44.65
2022-08-20T22:52:52.423Z,44.45
2022-08-20T22:55:22.813Z,44.53
2022-08-20T22:57:51.342Z,44.59
2022-08-20T23:00:20.090Z,45.06
2022-08-20T23:02:55.104Z,44.82
2022-08-20T23:05:28.074Z,45.19
2022-08-20T23:08:00.146Z,45.47
2022-08-20T23:10:32.517Z,45.46
2022-08-20T23:13:01.076Z,45.79
2022-08-20T23:15:31.883Z,46.10
2022-08-20T23:18:03.430Z,46.04
2022-08-20T23:20:35.646Z,46.06
2022-08-20T23:23:06.214Z,46.08
2022-08-20T23:25:35.080Z,46.33
2022-08-20T23:28:03.431Z,46.54
2022-08-20T23:30:33.840Z,46.42
2022-08-20T23:33:03.290Z,46.31
2022-08-20T23:35:35.588Z,46.84
2022-08-20T23:38:05.229Z,46.41
2022-08-20T23:40:35.760Z,46.45
2022-08-20T23:43:05.916Z,46.38
2022-08-20T23:45:39.683Z,46.66
2022-08-20T23:48:11.402Z,47.26
2022-08-20T23:50:43.243Z,46.99
2022-08-20T23:53:12.053Z,47.52
2022-08-20T23:55:40.904Z,47.35
2022-08-20T23:58:10.875Z,47.68
